sensor_id;sensor_type;location;lat;lon;timestamp;pressure;altitude;pressure_sealevel;temperature;humidity
55590;BME280;41452;42.780;23.116;2023-04-16T00:02:18;93860.09;;;6.99;74.07
55590;BME280;41452;42.780;23.116;2023-04-16T00:04:44;93854.84;;;6.88;74.55
55590;BME280;41452;42.780;23.116;2023-04-16T00:07:13;93864.47;;;6.87;74.82
55590;BME280;41452;42.780;23.116;2023-04-16T00:09:38;93860.06;;;6.88;74.75
55590;BME280;41452;42.780;23.116;2023-04-16T00:12:03;93863.75;;;6.98;74.10
55590;BME280;41452;42.780;23.116;2023-04-16T00:14:30;93849.63;;;6.69;74.52
55590;BME280;41452;42.780;23.116;2023-04-16T00:16:55;93877.63;;;6.80;75.19
55590;BME280;41452;42.780;23.116;2023-04-16T00:19:21;93869.38;;;6.77;75.39
55590;BME280;41452;42.780;23.116;2023-04-16T00:21:46;93866.56;;;6.78;75.79
55590;BME280;41452;42.780;23.116;2023-04-16T00:24:11;93868.91;;;6.68;76.54
55590;BME280;41452;42.780;23.116;2023-04-16T00:26:37;93846.13;;;6.57;76.48
55590;BME280;41452;42.780;23.116;2023-04-16T00:29:02;93865.41;;;6.74;76.56
55590;BME280;41452;42.780;23.116;2023-04-16T00:31:29;93851.00;;;6.72;77.04
55590;BME280;41452;42.780;23.116;2023-04-16T00:33:55;93873.13;;;6.88;77.23
55590;BME280;41452;42.780;23.116;2023-04-16T00:36:25;93865.72;;;6.84;77.24
55590;BME280;41452;42.780;23.116;2023-04-16T00:38:52;93863.25;;;6.71;78.23
55590;BME280;41452;42.780;23.116;2023-04-16T00:41:18;93859.25;;;6.69;78.75
55590;BME280;41452;42.780;23.116;2023-04-16T00:43:44;93859.47;;;6.67;79.38
55590;BME280;41452;42.780;23.116;2023-04-16T00:46:09;93865.94;;;6.64;79.17
55590;BME280;41452;42.780;23.116;2023-04-16T00:48:36;93856.44;;;6.70;78.61
55590;BME280;41452;42.780;23.116;2023-04-16T00:51:06;93861.94;;;6.62;79.21
55590;BME280;41452;42.780;23.116;2023-04-16T00:53:32;93852.59;;;6.54;79.72
55590;BME280;41452;42.780;23.116;2023-04-16T00:55:59;93838.47;;;6.43;79.91
55590;BME280;41452;42.780;23.116;2023-04-16T00:58:25;93852.81;;;6.53;79.78
55590;BME280;41452;42.780;23.116;2023-04-16T01:00:50;93856.50;;;6.45;80.54
55590;BME280;41452;42.780;23.116;2023-04-16T01:03:16;93789.13;;;5.98;81.33
55590;BME280;41452;42.780;23.116;2023-04-16T01:05:43;93843.16;;;6.35;82.33
55590;BME280;41452;42.780;23.116;2023-04-16T01:08:17;93847.34;;;6.36;82.83
55590;BME280;41452;42.780;23.116;2023-04-16T01:10:43;93841.22;;;6.49;82.47
55590;BME280;41452;42.780;23.116;2023-04-16T01:13:09;93808.75;;;6.26;82.85
55590;BME280;41452;42.780;23.116;2023-04-16T01:15:35;93844.97;;;6.53;83.08
55590;BME280;41452;42.780;23.116;2023-04-16T01:18:01;93844.53;;;6.37;83.42
55590;BME280;41452;42.780;23.116;2023-04-16T01:20:26;93848.00;;;6.31;84.36
55590;BME280;41452;42.780;23.116;2023-04-16T01:22:51;93844.09;;;6.40;83.17
55590;BME280;41452;42.780;23.116;2023-04-16T01:25:17;93848.31;;;6.41;83.11
55590;BME280;41452;42.780;23.116;2023-04-16T01:27:42;93834.47;;;6.41;83.08
55590;BME280;41452;42.780;23.116;2023-04-16T01:30:08;93837.44;;;6.44;83.22
55590;BME280;41452;42.780;23.116;2023-04-16T01:32:33;93835.59;;;6.26;84.50
55590;BME280;41452;42.780;23.116;2023-04-16T01:34:58;93813.84;;;6.14;84.22
55590;BME280;41452;42.780;23.116;2023-04-16T01:37:24;93836.53;;;6.32;84.15
55590;BME280;41452;42.780;23.116;2023-04-16T01:39:49;93840.03;;;6.26;84.78
55590;BME280;41452;42.780;23.116;2023-04-16T01:42:15;93837.28;;;6.21;84.66
55590;BME280;41452;42.780;23.116;2023-04-16T01:44:40;93832.69;;;6.16;85.45
55590;BME280;41452;42.780;23.116;2023-04-16T01:47:05;93828.50;;;6.15;85.21
55590;BME280;41452;42.780;23.116;2023-04-16T01:49:32;93738.16;;;5.59;85.36
55590;BME280;41452;42.780;23.116;2023-04-16T01:51:58;93809.00;;;6.18;84.69
55590;BME280;41452;42.780;23.116;2023-04-16T01:54:23;93806.53;;;6.04;85.86
55590;BME280;41452;42.780;23.116;2023-04-16T01:56:49;93824.13;;;6.09;86.49
55590;BME280;41452;42.780;23.116;2023-04-16T01:59:14;93821.69;;;6.14;85.86
55590;BME280;41452;42.780;23.116;2023-04-16T02:01:40;93823.13;;;6.10;86.08
55590;BME280;41452;42.780;23.116;2023-04-16T02:04:06;93823.91;;;6.11;86.36
55590;BME280;41452;42.780;23.116;2023-04-16T02:06:32;93820.47;;;6.17;85.39
55590;BME280;41452;42.780;23.116;2023-04-16T02:08:57;93812.13;;;6.26;84.96
55590;BME280;41452;42.780;23.116;2023-04-16T02:11:23;93806.09;;;6.07;85.55
55590;BME280;41452;42.780;23.116;2023-04-16T02:13:48;93821.53;;;6.09;85.91
55590;BME280;41452;42.780;23.116;2023-04-16T02:16:13;93819.91;;;6.15;85.81
55590;BME280;41452;42.780;23.116;2023-04-16T02:18:39;93810.63;;;6.19;85.53
55590;BME280;41452;42.780;23.116;2023-04-16T02:21:04;93814.69;;;6.15;86.05
55590;BME280;41452;42.780;23.116;2023-04-16T02:23:30;93821.84;;;5.94;87.81
55590;BME280;41452;42.780;23.116;2023-04-16T02:25:56;93823.88;;;5.92;87.85
55590;BME280;41452;42.780;23.116;2023-04-16T02:28:22;93818.72;;;6.11;86.99
55590;BME280;41452;42.780;23.116;2023-04-16T02:30:47;93810.47;;;6.14;86.35
55590;BME280;41452;42.780;23.116;2023-04-16T02:33:13;93815.56;;;6.02;86.99
55590;BME280;41452;42.780;23.116;2023-04-16T02:35:39;93814.94;;;6.06;86.89
55590;BME280;41452;42.780;23.116;2023-04-16T02:38:04;93814.03;;;5.94;87.69
55590;BME280;41452;42.780;23.116;2023-04-16T02:40:30;93810.56;;;6.00;87.91
55590;BME280;41452;42.780;23.116;2023-04-16T02:42:56;93810.00;;;5.98;88.01
55590;BME280;41452;42.780;23.116;2023-04-16T02:45:22;93810.00;;;5.98;87.72
55590;BME280;41452;42.780;23.116;2023-04-16T02:47:48;93811.19;;;6.02;87.34
55590;BME280;41452;42.780;23.116;2023-04-16T02:50:14;93740.50;;;5.67;87.04
55590;BME280;41452;42.780;23.116;2023-04-16T02:52:40;93808.50;;;6.09;87.95
55590;BME280;41452;42.780;23.116;2023-04-16T02:55:05;93809.88;;;6.12;87.56
55590;BME280;41452;42.780;23.116;2023-04-16T02:57:31;93807.66;;;6.15;87.07
55590;BME280;41452;42.780;23.116;2023-04-16T02:59:57;93804.53;;;6.25;86.15
55590;BME280;41452;42.780;23.116;2023-04-16T03:02:22;93809.91;;;6.30;85.96
55590;BME280;41452;42.780;23.116;2023-04-16T03:04:47;93816.78;;;6.24;86.44
55590;BME280;41452;42.780;23.116;2023-04-16T03:07:17;93799.16;;;6.20;86.55
55590;BME280;41452;42.780;23.116;2023-04-16T03:09:43;93809.69;;;6.32;86.45
55590;BME280;41452;42.780;23.116;2023-04-16T03:12:08;93808.16;;;6.24;86.78
55590;BME280;41452;42.780;23.116;2023-04-16T03:14:34;93812.34;;;6.06;88.30
55590;BME280;41452;42.780;23.116;2023-04-16T03:16:59;93790.31;;;6.02;87.70
55590;BME280;41452;42.780;23.116;2023-04-16T03:19:25;93819.44;;;6.18;87.45
55590;BME280;41452;42.780;23.116;2023-04-16T03:21:50;93816.63;;;6.19;87.71
55590;BME280;41452;42.780;23.116;2023-04-16T03:24:16;93818.13;;;6.27;88.11
55590;BME280;41452;42.780;23.116;2023-04-16T03:26:41;93780.41;;;5.86;88.62
55590;BME280;41452;42.780;23.116;2023-04-16T03:29:07;93818.56;;;6.05;89.79
55590;BME280;41452;42.780;23.116;2023-04-16T03:31:32;93815.72;;;6.07;89.78
55590;BME280;41452;42.780;23.116;2023-04-16T03:33:57;93784.75;;;5.99;89.10
55590;BME280;41452;42.780;23.116;2023-04-16T03:36:23;93816.56;;;6.26;88.80
55590;BME280;41452;42.780;23.116;2023-04-16T03:38:49;93826.13;;;6.32;89.00
55590;BME280;41452;42.780;23.116;2023-04-16T03:41:14;93822.50;;;6.33;89.02
55590;BME280;41452;42.780;23.116;2023-04-16T03:43:40;93821.63;;;6.39;88.52
55590;BME280;41452;42.780;23.116;2023-04-16T03:46:05;93804.81;;;6.35;88.83
55590;BME280;41452;42.780;23.116;2023-04-16T03:48:31;93823.97;;;6.47;88.62
55590;BME280;41452;42.780;23.116;2023-04-16T03:50:56;93772.34;;;6.13;88.42
55590;BME280;41452;42.780;23.116;2023-04-16T03:53:22;93822.97;;;6.49;88.34
55590;BME280;41452;42.780;23.116;2023-04-16T03:55:51;93764.84;;;6.04;88.49
55590;BME280;41452;42.780;23.116;2023-04-16T03:58:17;93821.34;;;6.29;90.11
55590;BME280;41452;42.780;23.116;2023-04-16T04:00:42;93777.53;;;5.94;90.67
55590;BME280;41452;42.780;23.116;2023-04-16T04:03:09;93831.28;;;6.39;89.92
55590;BME280;41452;42.780;23.116;2023-04-16T04:05:36;93820.84;;;6.39;89.67
55590;BME280;41452;42.780;23.116;2023-04-16T04:08:02;93827.56;;;6.46;89.39
55590;BME280;41452;42.780;23.116;2023-04-16T04:10:27;93829.19;;;6.47;90.04
55590;BME280;41452;42.780;23.116;2023-04-16T04:12:53;93835.13;;;6.55;89.57
55590;BME280;41452;42.780;23.116;2023-04-16T04:15:18;93830.78;;;6.49;90.69
55590;BME280;41452;42.780;23.116;2023-04-16T04:17:43;93836.22;;;6.47;90.48
55590;BME280;41452;42.780;23.116;2023-04-16T04:20:09;93821.78;;;6.44;90.76
55590;BME280;41452;42.780;23.116;2023-04-16T04:22:35;93839.56;;;6.54;91.23
55590;BME280;41452;42.780;23.116;2023-04-16T04:25:00;93841.22;;;6.49;92.17
55590;BME280;41452;42.780;23.116;2023-04-16T04:27:26;93841.66;;;6.45;92.85
55590;BME280;41452;42.780;23.116;2023-04-16T04:29:52;93826.41;;;6.24;93.75
55590;BME280;41452;42.780;23.116;2023-04-16T04:32:17;93842.13;;;6.36;94.06
55590;BME280;41452;42.780;23.116;2023-04-16T04:34:42;93851.56;;;6.37;94.62
55590;BME280;41452;42.780;23.116;2023-04-16T04:37:08;93859.31;;;6.43;95.58
55590;BME280;41452;42.780;23.116;2023-04-16T04:39:33;93856.06;;;6.48;95.46
55590;BME280;41452;42.780;23.116;2023-04-16T04:41:58;93853.75;;;6.58;96.05
55590;BME280;41452;42.780;23.116;2023-04-16T04:44:24;93854.31;;;6.60;95.25
55590;BME280;41452;42.780;23.116;2023-04-16T04:46:49;93852.53;;;6.61;94.98
55590;BME280;41452;42.780;23.116;2023-04-16T04:49:15;93833.31;;;6.55;95.54
55590;BME280;41452;42.780;23.116;2023-04-16T04:51:40;93761.94;;;6.13;95.54
55590;BME280;41452;42.780;23.116;2023-04-16T04:54:05;93838.53;;;6.74;95.80
55590;BME280;41452;42.780;23.116;2023-04-16T04:56:31;93824.25;;;6.76;95.54
55590;BME280;41452;42.780;23.116;2023-04-16T04:58:56;93860.78;;;6.95;95.12
55590;BME280;41452;42.780;23.116;2023-04-16T05:01:22;93828.44;;;6.77;95.22
55590;BME280;41452;42.780;23.116;2023-04-16T05:03:47;93859.38;;;7.11;96.07
55590;BME280;41452;42.780;23.116;2023-04-16T05:06:12;93859.13;;;7.12;96.43
55590;BME280;41452;42.780;23.116;2023-04-16T05:08:38;93866.97;;;7.12;96.01
55590;BME280;41452;42.780;23.116;2023-04-16T05:11:03;93823.16;;;6.84;96.50
55590;BME280;41452;42.780;23.116;2023-04-16T05:13:28;93827.41;;;6.97;97.86
55590;BME280;41452;42.780;23.116;2023-04-16T05:15:54;93861.59;;;7.26;98.00
55590;BME280;41452;42.780;23.116;2023-04-16T05:18:19;93862.47;;;7.19;97.17
55590;BME280;41452;42.780;23.116;2023-04-16T05:20:45;93834.34;;;7.03;97.18
55590;BME280;41452;42.780;23.116;2023-04-16T05:23:10;93849.91;;;7.28;97.17
55590;BME280;41452;42.780;23.116;2023-04-16T05:25:35;93851.72;;;7.28;96.95
55590;BME280;41452;42.780;23.116;2023-04-16T05:28:01;93859.13;;;7.31;96.69
55590;BME280;41452;42.780;23.116;2023-04-16T05:30:26;93860.84;;;7.37;97.07
55590;BME280;41452;42.780;23.116;2023-04-16T05:32:51;93862.84;;;7.53;97.61
55590;BME280;41452;42.780;23.116;2023-04-16T05:35:17;93864.47;;;7.66;97.07
55590;BME280;41452;42.780;23.116;2023-04-16T05:37:42;93775.28;;;7.20;95.10
55590;BME280;41452;42.780;23.116;2023-04-16T05:40:08;93864.81;;;7.81;94.16
55590;BME280;41452;42.780;23.116;2023-04-16T05:42:33;93823.66;;;7.65;93.76
55590;BME280;41452;42.780;23.116;2023-04-16T05:45:01;93856.44;;;7.91;93.36
55590;BME280;41452;42.780;23.116;2023-04-16T05:47:28;93852.47;;;8.00;92.84
55590;BME280;41452;42.780;23.116;2023-04-16T05:49:53;93856.47;;;8.03;93.02
55590;BME280;41452;42.780;23.116;2023-04-16T05:52:18;93859.75;;;8.10;92.00
55590;BME280;41452;42.780;23.116;2023-04-16T05:54:44;93857.00;;;8.17;89.92
55590;BME280;41452;42.780;23.116;2023-04-16T05:57:09;93852.03;;;8.27;87.49
55590;BME280;41452;42.780;23.116;2023-04-16T05:59:35;93851.69;;;8.35;83.81
55590;BME280;41452;42.780;23.116;2023-04-16T06:02:00;93851.22;;;8.27;80.04
55590;BME280;41452;42.780;23.116;2023-04-16T06:04:25;93862.03;;;8.18;78.62
55590;BME280;41452;42.780;23.116;2023-04-16T06:06:51;93774.56;;;7.55;81.40
55590;BME280;41452;42.780;23.116;2023-04-16T06:09:16;93805.63;;;7.99;80.99
55590;BME280;41452;42.780;23.116;2023-04-16T06:11:43;93857.41;;;8.44;79.19
55590;BME280;41452;42.780;23.116;2023-04-16T06:14:08;93854.53;;;8.34;75.90
55590;BME280;41452;42.780;23.116;2023-04-16T06:16:34;93839.16;;;8.26;76.09
55590;BME280;41452;42.780;23.116;2023-04-16T06:18:59;93856.69;;;8.25;80.41
55590;BME280;41452;42.780;23.116;2023-04-16T06:21:24;93857.97;;;8.23;80.09
55590;BME280;41452;42.780;23.116;2023-04-16T06:23:50;93853.97;;;8.32;79.58
55590;BME280;41452;42.780;23.116;2023-04-16T06:26:16;93851.59;;;8.54;79.10
55590;BME280;41452;42.780;23.116;2023-04-16T06:28:42;93848.97;;;8.54;82.37
55590;BME280;41452;42.780;23.116;2023-04-16T06:31:07;93845.19;;;8.73;81.23
55590;BME280;41452;42.780;23.116;2023-04-16T06:33:33;93844.84;;;8.82;82.88
55590;BME280;41452;42.780;23.116;2023-04-16T06:35:58;93851.97;;;8.98;81.25
55590;BME280;41452;42.780;23.116;2023-04-16T06:38:23;93833.88;;;8.97;80.79
55590;BME280;41452;42.780;23.116;2023-04-16T06:40:49;93853.63;;;9.16;81.70
55590;BME280;41452;42.780;23.116;2023-04-16T06:43:15;93852.38;;;9.19;81.25
55590;BME280;41452;42.780;23.116;2023-04-16T06:45:42;93861.44;;;9.28;81.50
55590;BME280;41452;42.780;23.116;2023-04-16T06:48:07;93775.72;;;8.83;79.63
55590;BME280;41452;42.780;23.116;2023-04-16T06:50:32;93855.75;;;9.31;79.98
55590;BME280;41452;42.780;23.116;2023-04-16T06:52:58;93852.13;;;9.49;81.67
55590;BME280;41452;42.780;23.116;2023-04-16T06:55:23;93860.13;;;9.42;78.12
55590;BME280;41452;42.780;23.116;2023-04-16T06:57:49;93851.97;;;9.56;78.07
55590;BME280;41452;42.780;23.116;2023-04-16T07:00:14;93856.09;;;9.51;80.00
55590;BME280;41452;42.780;23.116;2023-04-16T07:02:40;93848.34;;;9.57;78.08
55590;BME280;41452;42.780;23.116;2023-04-16T07:05:05;93823.72;;;9.58;81.29
55590;BME280;41452;42.780;23.116;2023-04-16T07:07:31;93856.78;;;9.93;77.81
55590;BME280;41452;42.780;23.116;2023-04-16T07:09:57;93828.34;;;9.84;77.91
55590;BME280;41452;42.780;23.116;2023-04-16T07:12:23;93846.22;;;10.04;76.83
55590;BME280;41452;42.780;23.116;2023-04-16T07:14:48;93857.91;;;10.14;76.03
55590;BME280;41452;42.780;23.116;2023-04-16T07:17:14;93838.44;;;10.09;76.00
55590;BME280;41452;42.780;23.116;2023-04-16T07:19:39;93849.84;;;10.32;76.28
55590;BME280;41452;42.780;23.116;2023-04-16T07:22:05;93821.25;;;10.19;75.17
55590;BME280;41452;42.780;23.116;2023-04-16T07:24:30;93826.91;;;10.27;75.89
55590;BME280;41452;42.780;23.116;2023-04-16T07:26:56;93854.13;;;10.38;75.75
55590;BME280;41452;42.780;23.116;2023-04-16T07:29:21;93850.34;;;10.51;76.89
55590;BME280;41452;42.780;23.116;2023-04-16T07:31:47;93853.59;;;10.58;77.10
55590;BME280;41452;42.780;23.116;2023-04-16T07:34:13;93846.41;;;10.71;75.77
55590;BME280;41452;42.780;23.116;2023-04-16T07:36:38;93799.69;;;10.51;76.59
55590;BME280;41452;42.780;23.116;2023-04-16T07:39:05;93809.28;;;10.62;76.54
55590;BME280;41452;42.780;23.116;2023-04-16T07:41:30;93849.94;;;10.98;76.63
55590;BME280;41452;42.780;23.116;2023-04-16T07:43:56;93850.88;;;10.70;77.90
55590;BME280;41452;42.780;23.116;2023-04-16T07:46:21;93789.69;;;10.70;78.19
55590;BME280;41452;42.780;23.116;2023-04-16T07:48:48;93847.03;;;11.22;75.99
55590;BME280;41452;42.780;23.116;2023-04-16T07:51:13;93764.59;;;10.79;73.41
55590;BME280;41452;42.780;23.116;2023-04-16T07:53:39;93821.19;;;11.14;73.37
55590;BME280;41452;42.780;23.116;2023-04-16T07:56:04;93851.16;;;11.40;72.81
55590;BME280;41452;42.780;23.116;2023-04-16T07:58:30;93858.09;;;11.46;72.79
55590;BME280;41452;42.780;23.116;2023-04-16T08:00:55;93839.47;;;11.53;75.00
55590;BME280;41452;42.780;23.116;2023-04-16T08:03:21;93843.81;;;11.64;72.27
55590;BME280;41452;42.780;23.116;2023-04-16T08:05:46;93838.84;;;11.68;72.61
55590;BME280;41452;42.780;23.116;2023-04-16T08:08:12;93844.50;;;11.82;73.18
55590;BME280;41452;42.780;23.116;2023-04-16T08:10:38;93841.91;;;11.87;71.92
55590;BME280;41452;42.780;23.116;2023-04-16T08:13:03;93771.38;;;11.56;73.86
55590;BME280;41452;42.780;23.116;2023-04-16T08:15:28;93830.00;;;12.06;72.69
55590;BME280;41452;42.780;23.116;2023-04-16T08:17:54;93821.16;;;12.23;73.10
55590;BME280;41452;42.780;23.116;2023-04-16T08:20:20;93826.34;;;12.55;71.00
55590;BME280;41452;42.780;23.116;2023-04-16T08:22:47;93828.84;;;12.77;69.72
55590;BME280;41452;42.780;23.116;2023-04-16T08:25:13;93825.78;;;12.96;70.36
55590;BME280;41452;42.780;23.116;2023-04-16T08:27:38;93818.31;;;12.82;69.15
55590;BME280;41452;42.780;23.116;2023-04-16T08:30:04;93824.19;;;13.00;66.91
55590;BME280;41452;42.780;23.116;2023-04-16T08:32:30;93817.91;;;13.01;66.50
55590;BME280;41452;42.780;23.116;2023-04-16T08:34:56;93816.00;;;12.91;68.24
55590;BME280;41452;42.780;23.116;2023-04-16T08:37:21;93820.81;;;13.04;67.44
55590;BME280;41452;42.780;23.116;2023-04-16T08:39:47;93822.38;;;13.05;67.87
55590;BME280;41452;42.780;23.116;2023-04-16T08:42:20;93804.47;;;13.02;66.27
55590;BME280;41452;42.780;23.116;2023-04-16T08:44:48;93823.66;;;12.98;65.42
55590;BME280;41452;42.780;23.116;2023-04-16T08:47:18;93818.09;;;12.89;65.21
55590;BME280;41452;42.780;23.116;2023-04-16T08:49:45;93823.38;;;12.89;66.80
55590;BME280;41452;42.780;23.116;2023-04-16T08:52:15;93815.22;;;12.90;65.49
55590;BME280;41452;42.780;23.116;2023-04-16T08:54:55;93815.97;;;12.86;66.57
55590;BME280;41452;42.780;23.116;2023-04-16T08:57:23;93785.81;;;12.56;66.19
55590;BME280;41452;42.780;23.116;2023-04-16T08:59:53;93812.28;;;12.87;67.99
55590;BME280;41452;42.780;23.116;2023-04-16T09:02:19;93803.91;;;12.95;66.54
55590;BME280;41452;42.780;23.116;2023-04-16T09:04:45;93796.81;;;13.01;66.41
55590;BME280;41452;42.780;23.116;2023-04-16T09:07:13;93797.09;;;13.09;66.84
55590;BME280;41452;42.780;23.116;2023-04-16T09:09:39;93801.31;;;13.10;65.72
55590;BME280;41452;42.780;23.116;2023-04-16T09:12:07;93800.28;;;13.17;64.12
55590;BME280;41452;42.780;23.116;2023-04-16T09:14:32;93801.09;;;13.22;64.92
55590;BME280;41452;42.780;23.116;2023-04-16T09:16:59;93765.19;;;13.01;64.69
55590;BME280;41452;42.780;23.116;2023-04-16T09:19:26;93797.97;;;13.36;63.05
55590;BME280;41452;42.780;23.116;2023-04-16T09:21:52;93799.06;;;13.40;62.77
55590;BME280;41452;42.780;23.116;2023-04-16T09:24:18;93800.53;;;13.10;62.94
55590;BME280;41452;42.780;23.116;2023-04-16T09:26:43;93807.63;;;12.51;64.13
55590;BME280;41452;42.780;23.116;2023-04-16T09:29:09;93801.69;;;12.77;64.44
55590;BME280;41452;42.780;23.116;2023-04-16T09:31:35;93808.41;;;13.05;64.60
55590;BME280;41452;42.780;23.116;2023-04-16T09:34:06;93809.53;;;13.29;63.02
55590;BME280;41452;42.780;23.116;2023-04-16T09:36:33;93742.16;;;12.76;62.85
55590;BME280;41452;42.780;23.116;2023-04-16T09:38:59;93804.06;;;13.36;62.25
55590;BME280;41452;42.780;23.116;2023-04-16T09:41:26;93793.19;;;13.22;61.17
55590;BME280;41452;42.780;23.116;2023-04-16T09:43:57;93795.88;;;13.38;62.70
55590;BME280;41452;42.780;23.116;2023-04-16T09:46:34;93799.84;;;13.45;63.05
55590;BME280;41452;42.780;23.116;2023-04-16T09:49:12;93805.41;;;13.59;62.57
55590;BME280;41452;42.780;23.116;2023-04-16T09:51:42;93800.13;;;13.69;60.79
55590;BME280;41452;42.780;23.116;2023-04-16T09:54:08;93803.59;;;13.75;64.31
55590;BME280;41452;42.780;23.116;2023-04-16T09:56:44;93791.72;;;13.83;62.13
55590;BME280;41452;42.780;23.116;2023-04-16T09:59:20;93790.66;;;13.89;61.01
55590;BME280;41452;42.780;23.116;2023-04-16T10:01:46;93789.88;;;14.09;61.94
55590;BME280;41452;42.780;23.116;2023-04-16T10:04:13;93800.69;;;14.13;58.16
55590;BME280;41452;42.780;23.116;2023-04-16T10:06:39;93782.72;;;14.04;61.82
55590;BME280;41452;42.780;23.116;2023-04-16T10:09:06;93785.38;;;14.20;57.98
55590;BME280;41452;42.780;23.116;2023-04-16T10:11:32;93778.22;;;14.31;59.84
55590;BME280;41452;42.780;23.116;2023-04-16T10:13:58;93780.56;;;14.58;59.24
55590;BME280;41452;42.780;23.116;2023-04-16T10:16:24;93775.28;;;14.58;57.30
55590;BME280;41452;42.780;23.116;2023-04-16T10:18:50;93712.19;;;14.36;56.28
55590;BME280;41452;42.780;23.116;2023-04-16T10:21:17;93771.84;;;14.62;56.37
55590;BME280;41452;42.780;23.116;2023-04-16T10:23:43;93770.50;;;14.65;53.64
55590;BME280;41452;42.780;23.116;2023-04-16T10:26:09;93760.41;;;14.82;58.90
55590;BME280;41452;42.780;23.116;2023-04-16T10:28:35;93757.38;;;15.10;56.52
55590;BME280;41452;42.780;23.116;2023-04-16T10:31:06;93754.91;;;15.24;53.71
55590;BME280;41452;42.780;23.116;2023-04-16T10:33:34;93748.75;;;15.38;56.47
55590;BME280;41452;42.780;23.116;2023-04-16T10:36:16;93747.38;;;15.46;54.95
55590;BME280;41452;42.780;23.116;2023-04-16T10:38:49;93747.09;;;15.48;51.75
55590;BME280;41452;42.780;23.116;2023-04-16T10:41:15;93750.72;;;15.62;51.53
55590;BME280;41452;42.780;23.116;2023-04-16T10:43:45;93747.19;;;15.77;54.17
55590;BME280;41452;42.780;23.116;2023-04-16T10:46:31;93732.09;;;15.77;53.55
55590;BME280;41452;42.780;23.116;2023-04-16T10:49:02;93743.47;;;15.78;51.83
55590;BME280;41452;42.780;23.116;2023-04-16T10:51:36;93672.88;;;15.29;53.00
55590;BME280;41452;42.780;23.116;2023-04-16T10:56:35;93732.16;;;16.02;53.19
55590;BME280;41452;42.780;23.116;2023-04-16T10:59:04;93740.78;;;16.12;50.88
55590;BME280;41452;42.780;23.116;2023-04-16T11:01:43;93736.91;;;16.05;51.79
55590;BME280;41452;42.780;23.116;2023-04-16T11:04:33;93734.34;;;15.94;49.20
55590;BME280;41452;42.780;23.116;2023-04-16T11:12:13;93728.19;;;16.04;50.98
55590;BME280;41452;42.780;23.116;2023-04-16T11:14:41;93688.47;;;15.35;49.83
55590;BME280;41452;42.780;23.116;2023-04-16T11:17:08;93729.69;;;15.81;49.47
55590;BME280;41452;42.780;23.116;2023-04-16T11:19:37;93683.03;;;15.51;48.50
55590;BME280;41452;42.780;23.116;2023-04-16T11:22:03;93718.22;;;15.56;51.20
55590;BME280;41452;42.780;23.116;2023-04-16T11:24:31;93718.34;;;15.75;50.63
55590;BME280;41452;42.780;23.116;2023-04-16T11:26:57;93717.25;;;15.82;50.46
55590;BME280;41452;42.780;23.116;2023-04-16T11:29:23;93708.91;;;15.93;47.94
55590;BME280;41452;42.780;23.116;2023-04-16T11:31:52;93696.38;;;15.75;48.02
55590;BME280;41452;42.780;23.116;2023-04-16T11:34:18;93709.63;;;15.75;46.98
55590;BME280;41452;42.780;23.116;2023-04-16T11:36:49;93693.19;;;15.78;48.09
55590;BME280;41452;42.780;23.116;2023-04-16T11:39:15;93692.88;;;15.45;47.71
55590;BME280;41452;42.780;23.116;2023-04-16T11:41:48;93621.19;;;15.12;48.43
55590;BME280;41452;42.780;23.116;2023-04-16T11:44:21;93683.47;;;15.63;47.53
55590;BME280;41452;42.780;23.116;2023-04-16T11:46:48;93646.75;;;15.56;47.72
55590;BME280;41452;42.780;23.116;2023-04-16T11:49:13;93689.56;;;15.64;48.42
55590;BME280;41452;42.780;23.116;2023-04-16T11:51:46;93689.78;;;15.33;46.99
55590;BME280;41452;42.780;23.116;2023-04-16T11:54:19;93688.84;;;15.53;47.99
55590;BME280;41452;42.780;23.116;2023-04-16T11:56:46;93688.44;;;15.70;48.44
55590;BME280;41452;42.780;23.116;2023-04-16T11:59:19;93686.56;;;15.70;46.13
55590;BME280;41452;42.780;23.116;2023-04-16T12:01:51;93687.72;;;15.93;47.44
55590;BME280;41452;42.780;23.116;2023-04-16T12:04:22;93679.69;;;16.04;46.54
55590;BME280;41452;42.780;23.116;2023-04-16T12:09:34;93679.16;;;15.77;48.00
55590;BME280;41452;42.780;23.116;2023-04-16T12:12:00;93676.69;;;15.86;50.32
55590;BME280;41452;42.780;23.116;2023-04-16T12:14:25;93666.91;;;16.11;49.67
55590;BME280;41452;42.780;23.116;2023-04-16T12:16:51;93662.81;;;16.24;48.67
55590;BME280;41452;42.780;23.116;2023-04-16T12:19:17;93659.81;;;16.30;49.38
55590;BME280;41452;42.780;23.116;2023-04-16T12:21:44;93659.19;;;16.39;47.72
55590;BME280;41452;42.780;23.116;2023-04-16T12:24:12;93658.63;;;16.42;46.88
55590;BME280;41452;42.780;23.116;2023-04-16T12:26:43;93656.44;;;16.49;47.84
55590;BME280;41452;42.780;23.116;2023-04-16T12:29:18;93663.75;;;16.57;46.55
55590;BME280;41452;42.780;23.116;2023-04-16T12:31:45;93653.78;;;16.68;46.32
55590;BME280;41452;42.780;23.116;2023-04-16T12:34:11;93561.78;;;16.11;47.25
55590;BME280;41452;42.780;23.116;2023-04-16T12:36:37;93657.41;;;16.77;49.71
55590;BME280;41452;42.780;23.116;2023-04-16T12:39:02;93593.72;;;16.39;46.54
55590;BME280;41452;42.780;23.116;2023-04-16T12:41:28;93637.09;;;16.24;48.36
55590;BME280;41452;42.780;23.116;2023-04-16T12:44:04;93602.69;;;15.71;48.50
55590;BME280;41452;42.780;23.116;2023-04-16T12:46:31;93636.84;;;16.26;48.71
55590;BME280;41452;42.780;23.116;2023-04-16T12:48:56;93637.38;;;16.47;46.67
55590;BME280;41452;42.780;23.116;2023-04-16T12:51:22;93630.59;;;16.35;47.13
55590;BME280;41452;42.780;23.116;2023-04-16T12:53:48;93635.34;;;16.39;47.18
55590;BME280;41452;42.780;23.116;2023-04-16T12:56:14;93616.81;;;16.39;49.41
55590;BME280;41452;42.780;23.116;2023-04-16T12:58:39;93627.72;;;16.56;46.87
55590;BME280;41452;42.780;23.116;2023-04-16T13:01:05;93590.66;;;16.32;45.79
55590;BME280;41452;42.780;23.116;2023-04-16T13:03:30;93612.50;;;16.43;48.83